Terminal Aerodrome Forecast
Issued by NWS Paducah, KY

Home | Current Version | Previous Version | Text Only | Print | Product List | Glossary On
Versions: 1 2 3 4 5 6 7 8 9 10 11 12 13 14 15 16 17
000
FTUS43 KPAH 230500
TAFPAH
TAF
KPAH 230536Z 2306/2406 03005KT P6SM OVC120
     FM231700 36005KT P6SM OVC060 PROB30 2317/2322 3SM -SNRA=

USA.gov is the U.S. government's official web portal to all federal, state and local government web resources and services.